Time;durP1;ratioP1;P1;durP2;ratioP2;P2;SDS_P1;SDS_P2;PMS_P1;PMS_P2;Temp;Humidity;BMP_temperature;BMP_pressure;BME280_temperature;BME280_humidity;BME280_pressure;Samples;Min_cycle;Max_cycle;Signal;HPM_P1;HPM_P2
2023/05/23 00:00:58;;;;;;;11.55;2.83;;;;;;;12.65;62.89;102297.53;4953059;28;20054;-45
2023/05/23 00:03:25;;;;;;;15.90;3.20;;;;;;;12.66;62.80;102294.41;4970399;28;20050;-47
2023/05/23 00:05:55;;;;;;;14.60;2.92;;;;;;;12.66;62.94;102288.84;4969746;28;20130;-44
2023/05/23 00:08:22;;;;;;;18.80;4.50;;;;;;;12.66;62.92;102293.59;4969556;28;20058;-43
2023/05/23 00:10:49;;;;;;;11.10;2.78;;;;;;;12.59;63.16;102290.47;4966667;28;20445;-45
2023/05/23 00:13:16;;;;;;;10.98;2.80;;;;;;;12.51;63.37;102292.09;4969741;28;20062;-46
2023/05/23 00:15:43;;;;;;;13.07;3.65;;;;;;;12.50;63.45;102284.88;4969260;28;20042;-46
2023/05/23 00:18:10;;;;;;;11.82;2.53;;;;;;;12.51;63.39;102286.53;4970263;28;20042;-45
2023/05/23 00:20:41;;;;;;;9.63;2.60;;;;;;;12.47;63.48;102290.28;4952075;28;20049;-47
2023/05/23 00:23:09;;;;;;;13.75;3.42;;;;;;;12.44;63.50;102290.91;4969922;28;20113;-47
2023/05/23 00:25:36;;;;;;;13.63;4.32;;;;;;;12.43;63.53;102301.19;4969480;28;20539;-46
2023/05/23 00:28:04;;;;;;;9.95;2.92;;;;;;;12.39;63.67;102294.63;4969842;28;20085;-46
2023/05/23 00:30:33;;;;;;;12.23;3.03;;;;;;;12.37;64.00;102296.91;4965792;28;20042;-44
2023/05/23 00:33:02;;;;;;;11.63;2.55;;;;;;;12.35;64.01;102299.19;4949241;28;20055;-46
2023/05/23 00:35:28;;;;;;;7.90;3.20;;;;;;;12.33;64.21;102295.94;4968150;28;20097;-45
2023/05/23 00:37:55;;;;;;;13.88;3.38;;;;;;;12.34;64.32;102292.00;4968577;28;20055;-45
2023/05/23 00:40:22;;;;;;;13.18;2.40;;;;;;;12.35;64.26;102290.88;4967534;28;20405;-46
2023/05/23 00:42:49;;;;;;;19.30;3.25;;;;;;;12.33;64.08;102290.38;4950461;28;20429;-47
2023/05/23 00:45:16;;;;;;;7.53;3.17;;;;;;;12.28;64.33;102292.47;4967087;28;20047;-44
2023/05/23 00:47:46;;;;;;;13.93;3.42;;;;;;;12.23;64.26;102274.00;4969642;28;20041;-45
2023/05/23 00:50:14;;;;;;;15.02;3.90;;;;;;;12.23;64.47;102279.53;4951135;28;20564;-48
2023/05/23 00:52:45;;;;;;;14.90;3.20;;;;;;;12.22;64.53;102277.91;4969348;28;20049;-45
2023/05/23 00:55:12;;;;;;;13.15;4.20;;;;;;;12.21;64.70;102281.81;4915754;28;20082;-48
2023/05/23 00:57:40;;;;;;;14.77;4.57;;;;;;;12.25;64.73;102276.44;4904185;28;20121;-46
2023/05/23 01:00:08;;;;;;;18.20;3.67;;;;;;;12.21;64.85;102276.25;4939928;28;20050;-49
2023/05/23 01:02:53;;;;;;;22.75;4.28;;;;;;;12.16;65.32;102281.94;4941441;28;20398;-48
2023/05/23 01:05:24;;;;;;;12.35;3.63;;;;;;;12.16;65.06;102274.44;4964135;28;20129;-44
2023/05/23 01:07:51;;;;;;;13.65;3.33;;;;;;;12.15;65.07;102283.09;4970472;28;20039;-44
2023/05/23 01:10:23;;;;;;;11.13;3.30;;;;;;;12.10;65.44;102285.97;4972198;28;20061;-46
2023/05/23 01:13:10;;;;;;;9.77;3.17;;;;;;;12.06;65.63;102290.53;4970371;28;20117;-45
2023/05/23 01:15:46;;;;;;;13.13;3.88;;;;;;;12.03;65.48;102285.63;4960763;28;20050;-45
2023/05/23 01:18:37;;;;;;;13.00;2.92;;;;;;;11.95;65.82;102284.44;4971598;28;20061;-44
2023/05/23 01:21:16;;;;;;;16.58;4.18;;;;;;;11.95;65.91;102278.88;4968757;28;20133;-44
2023/05/23 01:23:58;;;;;;;11.80;2.95;;;;;;;11.93;65.88;102280.34;4970604;28;20520;-45
2023/05/23 01:26:51;;;;;;;13.68;3.63;;;;;;;11.92;66.05;102278.69;4970270;28;20050;-45
2023/05/23 01:29:38;;;;;;;14.68;3.13;;;;;;;11.95;66.12;102283.63;4969212;28;20552;-51
2023/05/23 01:32:10;;;;;;;13.82;4.32;;;;;;;11.97;65.83;102282.16;4954048;28;20047;-46
2023/05/23 01:34:39;;;;;;;16.25;4.60;;;;;;;11.99;66.16;102292.97;4953766;28;20393;-44
2023/05/23 01:37:10;;;;;;;15.32;4.00;;;;;;;12.00;66.20;102291.81;4970010;28;20110;-44
2023/05/23 01:39:37;;;;;;;10.85;3.10;;;;;;;12.01;66.18;102291.50;4966564;28;20047;-44
2023/05/23 01:42:05;;;;;;;20.75;4.80;;;;;;;11.99;65.98;102296.53;4968316;28;20058;-44
2023/05/23 01:44:34;;;;;;;11.57;2.90;;;;;;;11.98;66.36;102294.09;4956152;28;20046;-44
2023/05/23 01:47:06;;;;;;;16.60;3.25;;;;;;;11.95;66.56;102294.72;4971799;28;20042;-44
2023/05/23 01:49:34;;;;;;;13.52;4.00;;;;;;;11.94;66.68;102295.88;4971959;28;20050;-45
2023/05/23 01:52:01;;;;;;;17.00;3.38;;;;;;;11.92;66.69;102303.66;4972066;28;20199;-45
2023/05/23 01:54:29;;;;;;;14.18;3.83;;;;;;;11.91;66.77;102299.28;4972155;28;20075;-45
2023/05/23 01:56:56;;;;;;;15.95;3.45;;;;;;;11.92;66.87;102296.16;4971198;28;20039;-47
2023/05/23 01:59:23;;;;;;;17.65;3.40;;;;;;;11.90;66.91;102304.00;4971765;28;20047;-44
2023/05/23 02:01:50;;;;;;;12.18;3.00;;;;;;;11.89;67.11;102299.56;4971209;28;20051;-51
2023/05/23 02:04:17;;;;;;;10.57;3.28;;;;;;;11.89;67.29;102302.34;4968549;28;20110;-44
2023/05/23 02:06:45;;;;;;;18.65;6.07;;;;;;;11.88;67.11;102288.81;4970836;28;20077;-45
2023/05/23 02:09:12;;;;;;;12.15;3.50;;;;;;;11.86;67.34;102293.84;4971704;28;20057;-45
2023/05/23 02:11:39;;;;;;;16.50;5.43;;;;;;;11.82;67.44;102307.53;4971743;28;20042;-48
2023/05/23 02:14:06;;;;;;;17.77;3.80;;;;;;;11.82;67.51;102298.38;4954256;28;20038;-45
2023/05/23 02:16:35;;;;;;;13.32;2.83;;;;;;;11.80;67.39;102304.25;4954506;28;20046;-46
2023/05/23 02:19:02;;;;;;;20.92;5.40;;;;;;;11.78;67.60;102297.38;4971392;28;20421;-49
2023/05/23 02:21:30;;;;;;;11.30;3.35;;;;;;;11.78;67.66;102295.41;4971773;28;20051;-46
2023/05/23 02:24:00;;;;;;;15.10;3.75;;;;;;;11.75;67.58;102292.47;4972100;28;20097;-44
2023/05/23 02:26:27;;;;;;;22.30;4.50;;;;;;;11.74;67.65;102299.13;4971128;28;20489;-45
2023/05/23 02:28:54;;;;;;;16.58;3.50;;;;;;;11.72;67.65;102295.88;4970586;28;20074;-45
2023/05/23 02:31:21;;;;;;;14.68;3.42;;;;;;;11.72;67.73;102304.19;4970041;28;20038;-45
2023/05/23 02:33:47;;;;;;;15.90;4.10;;;;;;;11.72;68.04;102305.03;4971707;28;20050;-44
2023/05/23 02:36:14;;;;;;;11.25;3.35;;;;;;;11.75;67.62;102301.63;4954214;28;20043;-46
2023/05/23 02:38:41;;;;;;;10.57;3.30;;;;;;;11.74;67.65;102304.69;4970971;28;20050;-50
2023/05/23 02:41:08;;;;;;;17.13;5.20;;;;;;;11.77;67.53;102304.06;4971708;28;20042;-48
2023/05/23 02:43:35;;;;;;;11.20;3.35;;;;;;;11.84;67.26;102298.88;4971121;28;20078;-48
2023/05/23 02:46:01;;;;;;;12.15;2.80;;;;;;;11.81;67.25;102302.31;4970033;28;20050;-46
2023/05/23 02:48:28;;;;;;;11.07;2.83;;;;;;;11.79;67.32;102308.16;4968983;28;20042;-48
2023/05/23 02:50:55;;;;;;;10.30;3.53;;;;;;;11.77;67.32;102304.06;4970751;28;20055;-48
2023/05/23 02:53:22;;;;;;;12.13;3.05;;;;;;;11.74;67.44;102301.91;4953074;28;20066;-47
2023/05/23 02:55:49;;;;;;;18.88;3.28;;;;;;;11.74;67.52;102310.25;4969115;28;20043;-49
2023/05/23 02:58:16;;;;;;;15.43;3.00;;;;;;;11.76;67.63;102307.97;4970379;28;20046;-44
2023/05/23 03:00:43;;;;;;;15.82;3.03;;;;;;;11.78;67.40;102311.25;5048060;23;20025;-47
2023/05/23 03:03:10;;;;;;;14.27;5.35;;;;;;;11.79;67.31;102307.34;4973330;23;20091;-44
2023/05/23 03:05:37;;;;;;;11.10;3.17;;;;;;;11.77;67.31;102315.16;4969254;28;20089;-45
2023/05/23 03:08:05;;;;;;;11.80;3.30;;;;;;;11.80;67.38;102308.97;4969708;28;20564;-51
2023/05/23 03:10:32;;;;;;;13.98;3.40;;;;;;;11.76;67.35;102308.78;4970628;28;20050;-45
2023/05/23 03:12:59;;;;;;;19.00;3.88;;;;;;;11.76;67.28;102310.72;4966080;28;20039;-48
2023/05/23 03:15:26;;;;;;;13.85;3.72;;;;;;;11.68;67.68;102315.06;4960127;28;20050;-47
2023/05/23 03:17:54;;;;;;;16.27;3.75;;;;;;;11.65;67.65;102312.91;4970000;28;20125;-45
2023/05/23 03:20:21;;;;;;;9.55;3.13;;;;;;;11.68;67.79;102317.00;4968979;28;20059;-44
2023/05/23 03:22:48;;;;;;;18.65;4.63;;;;;;;11.68;67.65;102311.47;4970504;28;20547;-46
2023/05/23 03:25:15;;;;;;;14.23;2.78;;;;;;;11.65;67.90;102312.91;4965228;28;20070;-45
2023/05/23 03:27:42;;;;;;;14.27;3.53;;;;;;;11.67;67.80;102309.84;4959257;28;20073;-44
2023/05/23 03:30:09;;;;;;;17.20;3.35;;;;;;;11.63;67.80;102306.84;4965268;28;20046;-44
2023/05/23 03:32:36;;;;;;;12.75;4.28;;;;;;;11.59;68.08;102303.09;4948402;28;20043;-43
2023/05/23 03:35:03;;;;;;;22.80;5.45;;;;;;;11.65;68.03;102307.34;4969520;28;20251;-45
2023/05/23 03:37:30;;;;;;;10.23;3.90;;;;;;;11.68;67.79;102303.13;4959999;28;20054;-46
2023/05/23 03:39:57;;;;;;;11.23;3.10;;;;;;;11.66;67.88;102309.00;4969830;28;20047;-45
2023/05/23 03:42:24;;;;;;;14.18;5.40;;;;;;;11.69;67.72;102313.13;4966752;28;20046;-44
2023/05/23 03:44:50;;;;;;;8.93;3.17;;;;;;;11.65;67.72;102310.13;4968591;28;20035;-45
2023/05/23 03:47:17;;;;;;;12.68;3.45;;;;;;;11.60;67.82;102305.53;4963900;28;20051;-45
2023/05/23 03:49:44;;;;;;;12.95;2.97;;;;;;;11.55;67.99;102293.75;4968681;28;20058;-44
2023/05/23 03:52:11;;;;;;;11.27;2.92;;;;;;;11.54;68.25;102290.13;4969523;28;20082;-44
2023/05/23 03:54:38;;;;;;;9.00;2.95;;;;;;;11.52;68.30;102292.41;4968629;28;20520;-48
2023/05/23 03:57:05;;;;;;;11.32;3.60;;;;;;;11.47;68.36;102294.50;4967016;28;20070;-44
2023/05/23 03:59:33;;;;;;;20.98;3.50;;;;;;;11.51;68.27;102295.50;4967661;28;20098;-45
2023/05/23 04:02:00;;;;;;;11.88;2.95;;;;;;;11.49;68.36;102292.25;4969001;28;20055;-47
2023/05/23 04:04:28;;;;;;;25.52;4.60;;;;;;;11.45;68.56;102288.44;4968520;28;20047;-48
2023/05/23 04:06:55;;;;;;;7.28;2.90;;;;;;;11.43;68.63;102285.16;4969969;28;20252;-44
2023/05/23 04:09:22;;;;;;;10.68;2.78;;;;;;;11.42;68.70;102291.84;4969748;28;20042;-44
2023/05/23 04:11:49;;;;;;;14.55;3.58;;;;;;;11.40;68.83;102294.94;4969941;28;20092;-44
2023/05/23 04:14:16;;;;;;;8.88;2.58;;;;;;;11.44;68.83;102278.47;4952265;28;20089;-45
2023/05/23 04:16:43;;;;;;;10.63;2.60;;;;;;;11.50;68.75;102280.81;4969650;28;20109;-46
2023/05/23 04:19:11;;;;;;;33.88;6.00;;;;;;;11.50;68.61;102283.59;4969731;28;20476;-44
2023/05/23 04:21:38;;;;;;;11.60;4.35;;;;;;;11.45;68.66;102292.03;4969769;28;20054;-45
2023/05/23 04:24:05;;;;;;;14.73;3.58;;;;;;;11.45;68.73;102280.94;4969831;28;20535;-45
2023/05/23 04:26:31;;;;;;;13.52;5.85;;;;;;;11.43;68.88;102283.22;4966687;28;20129;-44
2023/05/23 04:29:00;;;;;;;9.65;2.50;;;;;;;11.40;69.00;102278.28;4968992;28;20050;-45
2023/05/23 04:31:27;;;;;;;12.40;3.83;;;;;;;11.41;68.98;102282.69;4956391;28;20051;-45
2023/05/23 04:33:55;;;;;;;20.52;4.25;;;;;;;11.42;69.07;102286.28;4955832;28;20067;-44
2023/05/23 04:36:22;;;;;;;13.27;2.97;;;;;;;11.44;68.76;102284.84;4971253;28;20396;-47
2023/05/23 04:38:49;;;;;;;13.90;3.15;;;;;;;11.46;68.86;102282.56;4952621;28;20039;-44
2023/05/23 04:41:16;;;;;;;12.70;3.08;;;;;;;11.45;68.82;102282.91;4973272;28;20046;-44
2023/05/23 04:43:43;;;;;;;12.07;2.83;;;;;;;11.43;68.90;102276.84;4973425;28;20039;-44
2023/05/23 04:46:10;;;;;;;10.00;3.45;;;;;;;11.44;69.01;102275.69;4973339;28;20461;-44
2023/05/23 04:48:37;;;;;;;18.00;3.80;;;;;;;11.41;68.74;102281.91;4973253;28;20085;-44
2023/05/23 04:51:07;;;;;;;16.23;3.25;;;;;;;11.43;69.13;102285.16;4955612;28;20050;-46
2023/05/23 04:53:35;;;;;;;13.90;2.85;;;;;;;11.44;69.14;102279.28;4973669;28;20049;-45
2023/05/23 04:56:02;;;;;;;11.45;3.63;;;;;;;11.40;69.06;102289.41;4972934;28;20484;-44
2023/05/23 04:58:30;;;;;;;16.00;4.18;;;;;;;11.45;69.23;102286.50;4972533;28;20489;-44
2023/05/23 05:00:57;;;;;;;12.20;3.53;;;;;;;11.47;69.07;102291.72;4971962;28;20094;-44
2023/05/23 05:03:25;;;;;;;12.55;3.75;;;;;;;11.47;69.17;102288.94;4972973;28;20058;-44
2023/05/23 05:05:52;;;;;;;16.00;2.95;;;;;;;11.46;69.20;102290.88;4972802;28;20129;-44
2023/05/23 05:08:19;;;;;;;18.13;3.13;;;;;;;11.46;69.37;102298.41;4972990;28;20050;-47
2023/05/23 05:10:46;;;;;;;16.33;3.47;;;;;;;11.46;69.46;102290.88;4973024;28;20042;-46
2023/05/23 05:13:13;;;;;;;12.20;2.70;;;;;;;11.48;69.52;102296.13;4967713;28;20054;-51
2023/05/23 05:15:39;;;;;;;13.68;2.90;;;;;;;11.47;69.56;102289.78;4972824;28;20046;-44
2023/05/23 05:18:06;;;;;;;17.13;3.35;;;;;;;11.49;69.67;102303.34;4972266;28;20082;-49
2023/05/23 05:20:33;;;;;;;13.80;3.15;;;;;;;11.49;69.59;102306.91;4972677;28;20100;-44
2023/05/23 05:23:00;;;;;;;14.57;3.00;;;;;;;11.50;69.69;102300.25;4973039;28;20416;-44
2023/05/23 05:25:30;;;;;;;17.48;3.42;;;;;;;11.49;69.82;102298.59;4972652;28;20053;-44
2023/05/23 05:28:05;;;;;;;12.55;2.70;;;;;;;11.55;69.62;102300.13;4973304;28;20405;-44
2023/05/23 05:30:35;;;;;;;12.20;4.18;;;;;;;11.57;69.53;102300.63;4971713;28;20046;-45
2023/05/23 05:33:04;;;;;;;13.93;2.77;;;;;;;11.54;69.48;102301.25;4965830;28;20448;-44
2023/05/23 05:35:37;;;;;;;16.88;7.00;;;;;;;11.54;69.77;102306.00;4955277;28;20838;-44
2023/05/23 05:38:04;;;;;;;13.88;3.55;;;;;;;11.57;69.79;102303.38;4971940;28;20097;-48
2023/05/23 05:40:31;;;;;;;18.10;3.10;;;;;;;11.62;69.71;102292.16;4971898;28;20441;-53
2023/05/23 05:42:58;;;;;;;15.95;3.38;;;;;;;11.66;69.71;102291.53;4972877;28;20047;-45
2023/05/23 05:45:25;;;;;;;10.18;2.78;;;;;;;11.65;69.47;102287.94;4955504;28;20113;-44
2023/05/23 05:47:52;;;;;;;16.52;2.97;;;;;;;11.69;69.85;102290.94;4955468;28;20105;-44
2023/05/23 05:50:19;;;;;;;14.75;3.95;;;;;;;11.73;69.80;102281.66;4972388;28;20050;-45
2023/05/23 05:52:46;;;;;;;12.02;4.25;;;;;;;11.76;69.72;102291.31;4972163;28;20070;-44
2023/05/23 05:55:13;;;;;;;13.07;3.38;;;;;;;11.79;69.68;102285.97;4972741;28;20047;-44
2023/05/23 05:57:40;;;;;;;11.82;3.13;;;;;;;11.82;70.02;102290.06;4972236;28;20092;-44
2023/05/23 06:00:13;;;;;;;14.45;3.80;;;;;;;11.87;70.02;102284.38;4969588;28;20143;-45
2023/05/23 06:02:41;;;;;;;18.20;5.25;;;;;;;11.87;70.17;102282.44;4966814;28;20058;-51
2023/05/23 06:05:11;;;;;;;15.60;2.83;;;;;;;11.84;70.07;102277.50;4971448;28;20584;-44
2023/05/23 06:07:38;;;;;;;14.13;4.25;;;;;;;11.87;70.04;102282.44;4971679;28;20130;-44
2023/05/23 06:10:06;;;;;;;13.75;3.85;;;;;;;11.94;69.96;102282.00;4970120;28;20059;-44
2023/05/23 06:12:34;;;;;;;16.13;3.78;;;;;;;12.02;69.92;102284.00;4970413;28;20441;-47
2023/05/23 06:15:01;;;;;;;30.38;4.78;;;;;;;12.06;69.83;102285.81;4971911;28;20039;-44
2023/05/23 06:17:28;;;;;;;11.50;3.40;;;;;;;12.14;69.80;102284.22;4971807;28;20053;-44
2023/05/23 06:19:54;;;;;;;16.60;3.72;;;;;;;12.16;69.80;102290.28;4971980;28;20078;-44
2023/05/23 06:22:24;;;;;;;9.63;2.78;;;;;;;12.18;69.55;102288.81;4971810;28;20054;-45
2023/05/23 06:24:51;;;;;;;10.25;3.42;;;;;;;12.26;69.63;102289.19;4971813;28;20105;-50
2023/05/23 06:27:18;;;;;;;16.75;3.08;;;;;;;12.29;69.57;102289.34;4954884;28;20043;-44
2023/05/23 06:29:45;;;;;;;16.33;3.85;;;;;;;12.32;69.35;102294.28;4979584;28;20053;-50
2023/05/23 06:32:12;;;;;;;10.95;3.35;;;;;;;12.32;69.39;102305.38;4961695;28;20046;-44
2023/05/23 06:34:38;;;;;;;13.80;3.47;;;;;;;12.35;69.53;102301.16;4971459;28;20047;-48
2023/05/23 06:37:05;;;;;;;13.95;3.78;;;;;;;12.40;69.66;102304.63;4971205;28;20054;-44
2023/05/23 06:39:32;;;;;;;12.73;2.88;;;;;;;12.44;69.56;102308.41;4971208;28;20082;-45
2023/05/23 06:41:59;;;;;;;9.50;2.80;;;;;;;12.49;69.52;102311.03;4971205;28;20453;-44
2023/05/23 06:44:27;;;;;;;13.20;3.65;;;;;;;12.52;69.37;102310.38;4971579;28;20047;-46
2023/05/23 06:46:56;;;;;;;12.18;3.13;;;;;;;12.49;69.54;102299.94;4970271;28;20041;-44
2023/05/23 06:49:24;;;;;;;15.48;3.42;;;;;;;12.55;69.69;102312.50;4970775;28;20073;-45
2023/05/23 06:51:51;;;;;;;11.48;2.75;;;;;;;12.60;69.58;102312.38;4970920;28;20049;-45
2023/05/23 06:54:18;;;;;;;16.60;3.33;;;;;;;12.65;69.47;102312.25;4970952;28;20046;-45
2023/05/23 06:56:45;;;;;;;17.88;4.97;;;;;;;12.66;69.39;102305.53;4971181;28;20043;-44
2023/05/23 06:59:12;;;;;;;10.18;2.88;;;;;;;12.71;69.17;102294.28;4970002;28;20129;-45
2023/05/23 07:01:39;;;;;;;15.32;3.40;;;;;;;12.74;69.18;102306.69;4970670;28;20141;-44
2023/05/23 07:04:06;;;;;;;14.93;3.65;;;;;;;12.80;69.15;102297.09;4952482;28;20509;-45
2023/05/23 07:06:35;;;;;;;16.00;4.55;;;;;;;12.76;69.12;102304.44;4971052;28;20050;-45
2023/05/23 07:09:02;;;;;;;19.30;3.05;;;;;;;12.79;69.21;102301.00;4970330;28;20050;-45
2023/05/23 07:11:29;;;;;;;14.82;4.85;;;;;;;12.86;69.12;102294.97;4965071;28;20105;-45
2023/05/23 07:13:58;;;;;;;10.75;3.15;;;;;;;12.93;69.32;102304.47;4962448;28;20500;-48
2023/05/23 07:16:25;;;;;;;14.88;3.38;;;;;;;12.99;69.18;102313.50;4964245;28;20430;-45
2023/05/23 07:18:51;;;;;;;15.95;3.80;;;;;;;13.05;69.23;102312.19;4965903;28;20047;-44
2023/05/23 07:21:18;;;;;;;12.55;3.72;;;;;;;13.12;69.22;102302.25;4968866;28;20043;-45
2023/05/23 07:23:45;;;;;;;16.38;3.78;;;;;;;13.19;69.00;102307.34;4964718;28;20055;-45
2023/05/23 07:26:12;;;;;;;18.50;4.15;;;;;;;13.27;68.92;102306.53;4957877;28;20054;-45
2023/05/23 07:28:39;;;;;;;18.25;4.30;;;;;;;13.38;68.94;102307.84;4965753;28;20085;-50
2023/05/23 07:31:08;;;;;;;18.58;3.97;;;;;;;13.45;68.75;102307.38;4966843;28;20054;-45
2023/05/23 07:33:35;;;;;;;14.75;4.35;;;;;;;13.53;68.38;102312.13;4955890;28;20057;-45
2023/05/23 07:36:02;;;;;;;11.07;3.40;;;;;;;13.56;68.46;102309.50;4965779;28;20043;-45
2023/05/23 07:38:28;;;;;;;13.50;3.90;;;;;;;13.57;68.45;102294.44;4969452;28;20085;-49
2023/05/23 07:40:55;;;;;;;13.75;3.22;;;;;;;13.58;68.10;102292.47;4967380;28;20042;-45
2023/05/23 07:43:36;;;;;;;11.10;3.35;;;;;;;13.59;68.16;102296.88;4967036;28;20050;-45
2023/05/23 07:46:03;;;;;;;15.65;3.35;;;;;;;13.67;68.30;102301.63;4962786;28;20404;-46
2023/05/23 07:48:30;;;;;;;15.70;3.13;;;;;;;13.90;68.94;102301.13;4967315;28;20047;-45
2023/05/23 07:50:57;;;;;;;14.02;3.45;;;;;;;14.29;69.77;102302.03;4964189;28;20047;-52
2023/05/23 07:53:24;;;;;;;10.73;3.45;;;;;;;14.78;70.62;102309.72;4956510;28;20141;-44
2023/05/23 07:55:52;;;;;;;12.18;3.30;;;;;;;15.39;71.17;102321.31;4957551;28;20375;-42
2023/05/23 07:58:19;;;;;;;12.40;4.72;;;;;;;16.02;70.97;102328.53;4969333;28;20050;-42
2023/05/23 08:00:45;;;;;;;16.75;3.85;;;;;;;16.67;70.08;102331.28;4967686;28;20081;-43
2023/05/23 08:03:12;;;;;;;20.98;3.75;;;;;;;17.30;68.78;102332.53;4956895;28;20047;-43
2023/05/23 08:05:39;;;;;;;16.70;3.20;;;;;;;18.02;66.75;102331.53;4967765;28;20049;-43
2023/05/23 08:08:06;;;;;;;21.52;4.18;;;;;;;18.57;64.52;102327.84;4967695;28;20073;-43
2023/05/23 08:10:33;;;;;;;13.63;3.70;;;;;;;18.92;62.88;102332.72;4956535;28;20035;-44
2023/05/23 08:13:03;;;;;;;15.93;4.18;;;;;;;19.00;61.30;102342.94;4967591;28;20105;-44
2023/05/23 08:15:30;;;;;;;13.68;3.25;;;;;;;18.91;59.76;102342.31;4964878;28;20460;-43
2023/05/23 08:17:57;;;;;;;13.35;4.13;;;;;;;19.21;59.27;102337.84;4952451;28;20497;-47
2023/05/23 08:20:29;;;;;;;18.08;3.33;;;;;;;19.66;57.93;102329.66;4967104;28;20109;-43
2023/05/23 08:23:00;;;;;;;13.10;3.65;;;;;;;20.30;56.78;102333.78;4968439;28;20031;-43
2023/05/23 08:25:29;;;;;;;16.97;3.83;;;;;;;20.60;55.28;102337.56;4966489;28;20523;-44
2023/05/23 08:27:59;;;;;;;15.40;4.03;;;;;;;20.76;54.04;102338.25;4968941;28;20289;-44
2023/05/23 08:30:27;;;;;;;11.50;3.17;;;;;;;21.12;53.53;102331.22;4967501;28;20051;-43
2023/05/23 08:32:55;;;;;;;13.48;3.25;;;;;;;21.48;51.75;102321.28;4968761;28;20046;-40
2023/05/23 08:35:23;;;;;;;11.07;3.08;;;;;;;21.62;51.23;102324.28;4966530;28;20393;-50
2023/05/23 08:37:50;;;;;;;13.18;3.13;;;;;;;21.77;49.89;102328.91;4958027;28;20071;-45
2023/05/23 08:40:20;;;;;;;11.35;3.65;;;;;;;21.64;49.14;102330.34;4964192;28;20973;-45
2023/05/23 08:42:50;;;;;;;13.20;3.15;;;;;;;21.43;48.29;102328.06;4966226;28;20085;-44
2023/05/23 08:45:18;;;;;;;12.20;3.35;;;;;;;21.59;47.52;102327.88;4965214;28;20050;-50
2023/05/23 08:47:46;;;;;;;8.65;2.92;;;;;;;21.76;46.96;102332.94;4955565;28;20203;-44
2023/05/23 08:50:15;;;;;;;9.05;3.13;;;;;;;21.84;45.78;102329.03;4966307;28;20524;-43
2023/05/23 08:52:57;;;;;;;10.98;3.17;;;;;;;21.88;45.96;102329.91;4969314;28;20110;-46
2023/05/23 08:55:26;;;;;;;13.75;3.33;;;;;;;21.78;45.13;102337.00;4964340;28;20516;-46
2023/05/23 08:58:02;;;;;;;12.02;2.80;;;;;;;21.72;45.23;102332.88;4964440;28;20064;-45
2023/05/23 09:00:30;;;;;;;9.70;2.95;;;;;;;21.62;44.42;102324.28;4964354;28;20074;-44
2023/05/23 09:02:58;;;;;;;11.48;3.30;;;;;;;21.57;44.37;102327.44;4949858;28;20149;-44
2023/05/23 09:05:25;;;;;;;8.00;2.70;;;;;;;21.61;43.89;102322.66;4966638;28;20049;-44
2023/05/23 09:07:52;;;;;;;9.18;2.88;;;;;;;21.74;43.30;102324.03;4962063;28;20129;-44
2023/05/23 09:10:20;;;;;;;13.93;3.67;;;;;;;21.80;43.39;102317.69;4957452;28;20051;-44
2023/05/23 09:12:47;;;;;;;9.55;2.92;;;;;;;21.84;42.78;102312.88;4966578;28;20129;-46
2023/05/23 09:15:15;;;;;;;15.65;3.50;;;;;;;22.00;42.32;102314.75;4962292;28;20039;-45
2023/05/23 09:17:44;;;;;;;10.98;2.72;;;;;;;22.28;41.64;102304.56;4961591;28;20484;-45
2023/05/23 09:20:15;;;;;;;9.60;2.30;;;;;;;22.40;41.85;102309.91;4970900;28;20077;-46
2023/05/23 09:22:47;;;;;;;14.40;3.22;;;;;;;22.60;41.57;102312.53;4971373;28;20047;-43
2023/05/23 09:25:14;;;;;;;12.13;3.33;;;;;;;22.91;40.97;102303.53;4955236;28;20637;-45
2023/05/23 09:27:42;;;;;;;9.40;3.00;;;;;;;22.92;40.83;102308.00;4965743;28;20102;-44
2023/05/23 09:30:13;;;;;;;11.95;2.60;;;;;;;22.88;40.56;102305.13;4965347;28;20051;-45
2023/05/23 09:32:40;;;;;;;10.23;3.28;;;;;;;22.86;40.14;102307.53;4971228;28;20039;-44
2023/05/23 09:35:12;;;;;;;9.27;2.83;;;;;;;22.89;39.78;102308.78;4970216;28;20047;-47
2023/05/23 09:37:47;;;;;;;10.70;2.60;;;;;;;23.03;39.85;102306.06;4968642;28;20086;-44
2023/05/23 09:40:14;;;;;;;13.18;3.08;;;;;;;23.37;39.57;102301.06;4968465;28;20054;-43
2023/05/23 09:42:46;;;;;;;9.65;2.67;;;;;;;23.58;39.34;102299.16;4960285;28;20184;-44
2023/05/23 09:45:14;;;;;;;16.75;4.22;;;;;;;23.66;38.97;102299.16;4972218;28;20089;-44
2023/05/23 09:47:51;;;;;;;10.85;3.03;;;;;;;24.01;38.88;102296.47;4971362;28;20054;-46
2023/05/23 09:50:22;;;;;;;7.63;2.70;;;;;;;24.11;37.96;102292.91;4968381;28;20057;-44
2023/05/23 09:52:50;;;;;;;9.57;3.42;;;;;;;24.04;37.97;102295.69;4969757;28;20150;-43
2023/05/23 09:55:17;;;;;;;10.40;3.55;;;;;;;23.87;37.58;102287.94;4968393;28;20047;-44
2023/05/23 09:57:49;;;;;;;9.27;3.28;;;;;;;23.62;38.02;102290.66;4967511;28;20078;-44
2023/05/23 10:00:17;;;;;;;9.23;3.30;;;;;;;23.41;38.32;102285.72;4972298;28;20047;-44
2023/05/23 10:03:11;;;;;;;11.90;3.17;;;;;;;22.89;38.89;102289.00;4970645;28;20062;-46
2023/05/23 10:05:56;;;;;;;10.25;3.45;;;;;;;22.56;39.30;102289.13;4947037;28;20054;-44
2023/05/23 10:08:35;;;;;;;10.43;3.20;;;;;;;22.47;39.84;102291.44;4960486;28;20445;-44
2023/05/23 10:11:17;;;;;;;16.42;3.75;;;;;;;22.13;40.35;102285.88;4966623;28;20049;-45
2023/05/23 10:13:52;;;;;;;11.68;3.25;;;;;;;21.51;41.12;102275.44;4969345;28;20138;-44
2023/05/23 10:16:38;;;;;;;12.05;3.58;;;;;;;21.24;40.86;102286.75;4960653;28;20125;-44
2023/05/23 10:19:16;;;;;;;13.82;3.35;;;;;;;21.32;40.94;102292.47;4970660;28;20511;-45
2023/05/23 10:21:49;;;;;;;6.30;2.55;;;;;;;21.55;41.25;102281.94;4970395;28;20142;-45
2023/05/23 10:24:17;;;;;;;13.88;3.63;;;;;;;21.67;41.20;102292.94;4967674;28;20089;-46
2023/05/23 10:26:45;;;;;;;10.20;2.55;;;;;;;21.78;40.67;102289.06;4959412;28;20043;-48
2023/05/23 10:29:12;;;;;;;11.48;3.67;;;;;;;21.75;40.54;102286.19;4968050;28;20039;-44
2023/05/23 10:31:39;;;;;;;9.93;3.20;;;;;;;21.93;40.84;102287.25;4959804;28;20079;-51
2023/05/23 10:34:15;;;;;;;16.77;4.72;;;;;;;21.86;41.06;102270.25;4949911;28;20066;-45
2023/05/23 10:36:54;;;;;;;9.30;3.00;;;;;;;21.89;40.83;102274.31;4969058;28;20082;-44
2023/05/23 10:39:39;;;;;;;8.98;3.08;;;;;;;21.89;40.70;102282.78;4969084;28;20051;-45
2023/05/23 10:42:48;;;;;;;12.77;3.45;;;;;;;21.93;41.34;102275.97;4968535;28;20047;-47
2023/05/23 10:45:17;;;;;;;12.57;3.53;;;;;;;21.99;41.14;102274.44;4939176;28;20065;-45
2023/05/23 10:47:48;;;;;;;9.90;2.78;;;;;;;21.97;40.94;102268.38;4967319;28;20681;-45
2023/05/23 10:50:33;;;;;;;8.82;3.42;;;;;;;21.79;41.19;102253.22;4969843;28;20043;-44
2023/05/23 10:53:04;;;;;;;10.85;3.47;;;;;;;21.60;41.70;102256.22;4963585;28;20043;-45
2023/05/23 10:55:32;;;;;;;6.70;2.83;;;;;;;21.46;41.56;102259.66;4968004;28;20129;-47
2023/05/23 10:58:21;;;;;;;9.85;3.70;;;;;;;21.43;41.21;102265.25;4964068;28;20489;-45
2023/05/23 11:00:55;;;;;;;10.65;2.97;;;;;;;21.33;41.61;102277.19;4965163;28;20626;-44
2023/05/23 11:03:32;;;;;;;9.07;2.60;;;;;;;21.11;41.04;102268.44;4965849;28;20051;-45
2023/05/23 11:06:00;;;;;;;10.52;3.03;;;;;;;20.91;41.62;102271.72;4964648;28;20061;-44
2023/05/23 11:08:36;;;;;;;13.75;3.50;;;;;;;20.81;41.31;102269.56;4966262;28;20047;-44
2023/05/23 11:11:14;;;;;;;12.48;2.75;;;;;;;20.54;41.89;102271.53;4966069;28;20043;-44
2023/05/23 11:13:58;;;;;;;10.55;2.35;;;;;;;20.36;41.72;102259.97;4962163;28;20041;-50
2023/05/23 11:16:28;;;;;;;12.48;2.83;;;;;;;20.29;42.02;102253.41;4968830;28;20098;-43
2023/05/23 11:19:18;;;;;;;10.98;3.38;;;;;;;20.25;42.38;102258.97;4968617;28;20460;-43
2023/05/23 11:21:49;;;;;;;6.47;2.67;;;;;;;20.13;43.08;102250.69;4956252;28;20413;-49
2023/05/23 11:24:19;;;;;;;9.77;2.47;;;;;;;20.10;43.67;102253.41;4956842;28;20074;-46
2023/05/23 11:27:00;;;;;;;11.50;3.17;;;;;;;20.07;43.54;102249.34;4953197;28;20106;-44
2023/05/23 11:29:30;;;;;;;9.27;2.80;;;;;;;19.97;43.56;102247.97;4966668;28;20520;-43